Time;durP1;ratioP1;P1;durP2;ratioP2;P2;SDS_P1;SDS_P2;PMS_P1;PMS_P2;Temp;Humidity;BMP_temperature;BMP_pressure;BME280_temperature;BME280_humidity;BME280_pressure;Samples;Min_cycle;Max_cycle;Signal;HPM_P1;HPM_P2
2022/07/30 10:00:06;;;;;;;;;;;;;;;;;;;;;
2022/07/30 10:11:21;;;;;;;;;;;;;;;;;;;;;
2022/07/30 10:12:37;;;;;;;20.55;18.35;;;;;;;27.47;38.54;101217.84;843051;23;1103;-96
2022/07/30 10:13:47;;;;;;;21.13;18.25;;;;;;;27.70;37.80;101221.47;843472;23;1610;-95
2022/07/30 10:15:00;;;;;;;19.30;17.05;;;;;;;27.80;37.62;101214.88;840481;23;1609;-96
2022/07/30 10:15:51;;;;;;;18.63;15.82;;;;;;;27.88;37.68;101218.13;837362;23;673;-96
2022/07/30 10:16:55;;;;;;;;;;;;;;;;;;;;;
2022/07/30 10:17:33;;;;;;;20.05;15.32;;;;;;;28.35;37.06;101220.84;863754;23;1100;-96
2022/07/30 10:22:51;;;;;;;13.48;12.07;;;;;;;29.72;35.29;101215.94;854433;23;1142;-96
2022/07/30 10:23:51;;;;;;;14.15;11.90;;;;;;;30.21;34.00;101222.69;844813;23;1120;-95
2022/07/30 10:29:20;;;;;;;;;;;;;;;;;;;;;
2022/07/30 10:30:15;;;;;;;14.43;12.98;;;;;;;33.81;28.75;101230.84;838986;23;1191;-95
2022/07/30 10:31:00;;;;;;;14.03;12.53;;;;;;;33.99;28.45;101214.41;833049;23;1300;-96
2022/07/30 10:31:35;;;;;;;13.85;11.88;;;;;;;34.25;27.89;101225.38;833277;23;1466;-96
2022/07/30 10:36:15;;;;;;;;;;;;;;;;;;;;;
2022/07/30 10:37:20;;;;;;;;;;;;;;;;;;;;;
2022/07/30 10:38:51;;;;;;;12.13;9.15;;;;;;;37.51;23.79;101216.50;844913;23;1013;-96
2022/07/30 10:39:32;;;;;;;;;;;;;;;;;;;;;
2022/07/30 10:40:41;;;;;;;;;;;;;;;;;;;;;
2022/07/30 10:43:29;;;;;;;9.15;7.60;;;;;;;37.89;21.50;101220.72;835563;23;1578;-94
2022/07/30 10:44:24;;;;;;;8.70;7.68;;;;;;;37.83;21.56;101210.31;838183;23;1362;-96
2022/07/30 10:45:21;;;;;;;;;;;;;;;;;;;;;
2022/07/30 10:46:03;;;;;;;;;;;;;;;;;;;;;
2022/07/30 10:50:27;;;;;;;8.25;7.32;;;;;;;39.72;20.77;101225.28;865720;22;1167;-96
2022/07/30 10:50:54;;;;;;;9.98;7.68;;;;;;;40.06;20.54;101216.78;857079;23;1313;-95
2022/07/30 10:52:06;;;;;;;9.20;7.80;;;;;;;40.36;20.13;101214.97;844697;23;1209;-95
2022/07/30 10:52:59;;;;;;;11.43;8.35;;;;;;;40.69;20.16;101212.78;849007;23;1293;-94
2022/07/30 10:53:48;;;;;;;8.93;8.02;;;;;;;41.42;19.60;101210.47;848692;23;1319;-96
2022/07/30 10:54:44;;;;;;;9.02;8.07;;;;;;;42.39;18.92;101222.94;849226;23;1159;-96
2022/07/30 10:55:36;;;;;;;9.20;8.40;;;;;;;42.21;18.50;101212.78;848925;23;1315;-94
2022/07/30 10:56:24;;;;;;;8.93;8.13;;;;;;;41.95;19.44;101221.75;844838;23;1352;-96
2022/07/30 10:58:26;;;;;;;8.00;7.30;;;;;;;41.79;18.95;101209.59;840555;23;1552;-96
2022/07/30 10:59:19;;;;;;;7.13;6.53;;;;;;;42.01;18.52;101206.59;841939;23;1213;-96
2022/07/30 10:59:54;;;;;;;6.80;6.10;;;;;;;42.20;18.63;101217.44;840691;23;1245;-94
2022/07/30 11:00:30;;;;;;;8.05;7.07;;;;;;;42.05;18.48;101208.88;837832;23;1749;-96
2022/07/30 11:01:03;;;;;;;8.00;7.30;;;;;;;41.91;18.96;101201.19;852447;23;1287;-95
2022/07/30 11:01:45;;;;;;;7.10;6.40;;;;;;;42.34;18.32;101213.25;848826;23;1467;-94
2022/07/30 11:02:14;;;;;;;6.43;5.82;;;;;;;42.37;17.98;101212.09;857242;23;1396;-94
2022/07/30 11:03:14;;;;;;;5.30;4.90;;;;;;;42.35;17.37;101217.72;853586;23;1211;-96
2022/07/30 11:03:48;;;;;;;6.03;5.43;;;;;;;41.90;17.34;101202.16;857501;23;1233;-96
2022/07/30 11:04:48;;;;;;;6.57;5.40;;;;;;;41.34;17.89;101204.88;848914;23;1113;-96
2022/07/30 11:05:19;;;;;;;5.85;5.20;;;;;;;41.35;18.36;101217.56;848916;23;1245;-96
2022/07/30 11:05:55;;;;;;;5.50;5.00;;;;;;;41.24;18.02;101200.31;848960;23;1108;-96
2022/07/30 11:06:40;;;;;;;6.20;5.70;;;;;;;41.21;18.07;101210.69;845111;23;1227;-96
2022/07/30 11:11:24;;;;;;;5.78;5.18;;;;;;;42.49;17.38;101210.84;849823;23;1314;-96
2022/07/30 11:11:55;;;;;;;5.63;4.93;;;;;;;42.32;17.05;101208.94;840799;23;1236;-95
2022/07/30 11:12:42;;;;;;;7.13;5.50;;;;;;;41.68;17.35;101201.59;837197;23;1202;-95
2022/07/30 11:13:53;;;;;;;4.88;4.38;;;;;;;41.39;17.76;101208.91;841916;23;1174;-95
2022/07/30 11:14:47;;;;;;;4.97;4.57;;;;;;;41.11;18.40;101205.22;836775;23;1215;-96
2022/07/30 11:16:03;;;;;;;5.57;5.07;;;;;;;40.98;18.30;101194.59;842803;23;1275;-96
2022/07/30 11:17:10;;;;;;;5.22;4.70;;;;;;;41.32;17.99;101198.72;836928;23;1326;-95
2022/07/30 11:18:04;;;;;;;5.30;4.80;;;;;;;41.81;17.85;101195.75;847821;23;1283;-96
2022/07/30 11:19:15;;;;;;;6.10;5.10;;;;;;;42.35;17.45;101203.19;845726;23;1075;-96
2022/07/30 11:20:23;;;;;;;;;;;;;;;;;;;;;
2022/07/30 11:22:48;;;;;;;4.68;4.13;;;;;;;41.84;17.29;101209.13;858284;23;1201;-95
2022/07/30 11:23:35;;;;;;;7.40;4.63;;;;;;;41.47;17.63;101216.38;858042;23;1205;-96
2022/07/30 11:24:01;;;;;;;5.72;4.10;;;;;;;41.42;17.55;101205.00;853815;23;1203;-96
2022/07/30 11:24:50;;;;;;;5.50;4.93;;;;;;;41.56;17.36;101197.28;856643;23;772;-96
2022/07/30 11:25:56;;;;;;;;;;;;;;;;;;;;;
2022/07/30 11:28:03;;;;;;;;;;;;;;;;;;;;;
2022/07/30 11:28:54;;;;;;;3.90;3.50;;;;;;;43.15;16.04;101215.13;860751;23;1058;-95
2022/07/30 11:29:52;;;;;;;;;;;;;;;;;;;;;
2022/07/30 11:30:55;;;;;;;;;;;;;;;;;;;;;
2022/07/30 11:31:44;;;;;;;6.10;4.00;;;;;;;42.91;15.77;101186.50;859429;23;918;-94
2022/07/30 11:32:42;;;;;;;;;;;;;;;;;;;;;
2022/07/30 11:33:52;;;;;;;5.22;3.50;;;;;;;42.65;15.90;101195.53;863144;23;1099;-93
2022/07/30 11:35:19;;;;;;;4.18;3.80;;;;;;;42.66;15.97;101190.94;858692;23;1119;-93
2022/07/30 11:36:27;;;;;;;3.80;3.60;;;;;;;43.32;15.53;101194.13;859864;23;965;-96
2022/07/30 11:38:05;;;;;;;5.00;4.32;;;;;;;42.98;15.44;101192.19;864750;22;1318;-95
2022/07/30 11:39:12;;;;;;;4.50;4.05;;;;;;;43.12;15.87;101198.97;862730;23;996;-94
2022/07/30 11:43:44;;;;;;;3.80;3.50;;;;;;;43.32;15.68;101193.28;856998;23;1104;-96
2022/07/30 11:44:41;;;;;;;;;;;;;;;;;;;;;
2022/07/30 11:45:21;;;;;;;3.92;3.30;;;;;;;42.86;15.86;101189.75;840773;23;1229;-95
2022/07/30 11:46:24;;;;;;;;;;;;;;;;;;;;;
2022/07/30 11:46:58;;;;;;;4.82;3.78;;;;;;;41.79;16.14;101173.97;840317;23;1150;-93
2022/07/30 11:47:39;;;;;;;5.32;4.00;;;;;;;40.93;16.85;101172.31;844723;23;1400;-93
2022/07/30 11:48:08;;;;;;;5.60;3.90;;;;;;;40.04;17.85;101180.53;848771;23;1224;-93
2022/07/30 11:48:58;;;;;;;7.55;3.80;;;;;;;38.80;18.86;101181.41;848960;23;1420;-94
2022/07/30 11:49:26;;;;;;;5.07;4.10;;;;;;;38.32;19.45;101177.28;847989;23;1286;-94
2022/07/30 11:50:05;;;;;;;4.50;4.10;;;;;;;38.70;19.56;101173.16;840714;23;1321;-94
2022/07/30 11:50:34;;;;;;;4.95;4.25;;;;;;;39.30;19.06;101175.25;848994;23;1357;-93
2022/07/30 11:51:30;;;;;;;5.72;5.05;;;;;;;40.10;18.33;101162.69;850989;23;1104;-94
2022/07/30 11:53:36;;;;;;;;;;;;;;;;;;;;;
2022/07/30 11:55:04;;;;;;;7.53;4.30;;;;;;;43.33;16.00;101168.38;859251;23;1115;-95
2022/07/30 11:56:23;;;;;;;;;;;;;;;;;;;;;
2022/07/30 11:57:29;;;;;;;;;;;;;;;;;;;;;
2022/07/30 11:58:13;;;;;;;;;;;;;;;;;;;;;
2022/07/30 11:59:11;;;;;;;4.50;4.10;;;;;;;42.00;16.63;101178.34;859544;23;1194;-94
2022/07/30 11:59:56;;;;;;;5.10;4.60;;;;;;;41.05;17.44;101167.53;847019;23;1351;-94
2022/07/30 12:00:46;;;;;;;4.85;4.45;;;;;;;40.04;18.21;101164.13;857057;23;1283;-94
2022/07/30 12:02:00;;;;;;;5.35;4.70;;;;;;;38.93;19.04;101167.56;852853;23;1468;-94
2022/07/30 12:02:51;;;;;;;6.25;4.53;;;;;;;39.04;19.32;101163.94;847348;23;1332;-95
2022/07/30 12:03:30;;;;;;;;;;;;;;;;;;;;;
2022/07/30 12:04:14;;;;;;;7.70;4.80;;;;;;;41.16;17.81;101172.84;848809;23;1224;-95
2022/07/30 12:04:54;;;;;;;5.30;4.80;;;;;;;41.77;17.03;101167.78;842063;23;1188;-94
2022/07/30 12:06:08;;;;;;;6.03;5.53;;;;;;;41.74;16.74;101159.88;851593;23;1218;-92
2022/07/30 12:06:44;;;;;;;5.80;5.20;;;;;;;41.67;16.96;101173.34;846307;23;1518;-93
2022/07/30 12:07:31;;;;;;;5.72;4.97;;;;;;;41.81;17.18;101171.09;844620;23;1184;-96
2022/07/30 12:08:09;;;;;;;6.10;5.50;;;;;;;42.03;16.78;101175.28;844199;23;1127;-94
2022/07/30 12:10:37;;;;;;;;;;;;;;;;;;;;;
2022/07/30 12:11:36;;;;;;;7.20;6.50;;;;;;;42.50;16.57;101167.84;854369;23;1079;-95
2022/07/30 12:12:53;;;;;;;;;;;;;;;;;;;;;
2022/07/30 12:13:59;;;;;;;7.95;7.30;;;;;;;42.93;15.74;101162.50;848691;23;1324;-94
2022/07/30 12:14:45;;;;;;;7.53;6.72;;;;;;;41.83;16.35;101176.44;861387;23;1361;-96
2022/07/30 12:15:41;;;;;;;7.00;6.40;;;;;;;40.33;17.72;101182.47;858412;23;881;-93
2022/07/30 12:16:39;;;;;;;6.72;6.13;;;;;;;39.11;18.85;101177.88;848219;23;1176;-93
2022/07/30 12:17:21;;;;;;;6.60;6.00;;;;;;;38.73;19.44;101186.53;857006;23;836;-93
2022/07/30 12:17:53;;;;;;;7.85;6.30;;;;;;;38.85;19.30;101162.81;845929;23;1216;-93
2022/07/30 12:19:02;;;;;;;7.32;6.60;;;;;;;39.30;18.82;101172.53;836592;23;1211;-92
2022/07/30 12:20:06;;;;;;;6.72;6.22;;;;;;;39.76;18.49;101174.84;854223;23;1211;-95
2022/07/30 12:21:14;;;;;;;7.30;6.55;;;;;;;39.08;19.10;101179.88;858574;23;906;-96
2022/07/30 12:22:20;;;;;;;;;;;;;;;;;;;;;
2022/07/30 12:23:00;;;;;;;8.70;6.40;;;;;;;38.66;19.13;101175.28;857087;23;1278;-94
2022/07/30 12:23:54;;;;;;;11.20;6.60;;;;;;;39.42;18.65;101166.94;855334;23;1321;-95
2022/07/30 12:24:35;;;;;;;;;;;;;;;;;;;;;
2022/07/30 12:25:23;;;;;;;6.60;5.90;;;;;;;40.54;17.64;101171.34;840670;23;1331;-93
2022/07/30 12:25:44;;;;;;;6.57;5.40;;;;;;;40.18;17.69;101171.91;852969;23;1255;-95
2022/07/30 12:26:05;;;;;;;6.47;5.20;;;;;;;39.72;18.00;101173.41;848486;23;1299;-92
2022/07/30 12:26:46;;;;;;;;;;;;;;;;;;;;;
2022/07/30 12:27:25;;;;;;;5.95;5.35;;;;;;;38.15;19.26;101187.75;856989;23;1229;-93
2022/07/30 12:27:51;;;;;;;7.60;5.70;;;;;;;37.41;20.28;101173.72;848678;23;1265;-93
2022/07/30 12:28:27;;;;;;;8.30;6.03;;;;;;;36.94;20.79;101172.91;844604;23;1418;-94
2022/07/30 12:29:53;;;;;;;6.82;5.70;;;;;;;35.27;22.55;101179.69;852744;23;1263;-95
2022/07/30 12:30:20;;;;;;;6.65;5.35;;;;;;;34.90;22.82;101157.88;848571;23;1221;-94
2022/07/30 12:31:23;;;;;;;;;;;;;;;;;;;;;
2022/07/30 12:31:59;;;;;;;6.03;5.35;;;;;;;34.51;23.48;101182.16;848843;23;1129;-96
2022/07/30 12:32:39;;;;;;;6.68;5.22;;;;;;;34.65;23.23;101165.81;844910;23;1215;-96
2022/07/30 12:33:23;;;;;;;6.00;5.40;;;;;;;35.43;22.90;101171.34;844712;23;1343;-93
2022/07/30 12:33:59;;;;;;;5.50;5.00;;;;;;;36.29;22.20;101171.44;856683;23;1378;-96
2022/07/30 12:34:33;;;;;;;5.80;5.25;;;;;;;36.63;21.58;101166.13;852943;23;1315;-95
2022/07/30 12:35:19;;;;;;;;;;;;;;;;;;;;;
2022/07/30 12:36:16;;;;;;;;;;;;;;;;;;;;;
2022/07/30 12:37:12;;;;;;;5.55;5.05;;;;;;;38.67;19.50;101176.16;853896;23;1567;-96
2022/07/30 12:38:04;;;;;;;5.88;4.75;;;;;;;38.22;19.67;101178.06;856517;23;1229;-94
2022/07/30 12:38:47;;;;;;;5.30;4.55;;;;;;;37.53;20.10;101160.97;856480;23;1025;-93
2022/07/30 12:39:26;;;;;;;5.10;4.60;;;;;;;36.75;20.67;101155.34;852676;23;1366;-93
2022/07/30 12:40:14;;;;;;;5.68;4.80;;;;;;;36.14;21.28;101169.88;848809;23;1184;-93
2022/07/30 12:41:10;;;;;;;7.20;4.90;;;;;;;35.05;21.92;101154.09;846440;23;1028;-94
2022/07/30 12:41:56;;;;;;;;;;;;;;;;;;;;;
2022/07/30 12:42:39;;;;;;;;;;;;;;;;;;;;;
2022/07/30 12:43:14;;;;;;;6.80;5.07;;;;;;;35.96;21.68;101173.81;844711;23;1266;-94
2022/07/30 12:44:07;;;;;;;6.93;4.93;;;;;;;37.21;20.92;101158.13;857082;23;1334;-94
2022/07/30 12:44:47;;;;;;;6.40;4.63;;;;;;;38.10;20.15;101162.78;854790;23;1235;-96
2022/07/30 12:46:06;;;;;;;;;;;;;;;;;;;;;
2022/07/30 12:46:50;;;;;;;;;;;;;;;;;;;;;
2022/07/30 12:47:28;;;;;;;6.60;5.20;;;;;;;41.06;17.22;101161.03;847293;23;1346;-95
2022/07/30 12:48:23;;;;;;;;;;;;;;;;;;;;;
2022/07/30 12:53:33;;;;;;;4.03;3.55;;;;;;;42.98;14.49;101159.25;844944;23;1243;-94
2022/07/30 12:54:16;;;;;;;4.82;3.85;;;;;;;42.60;14.59;101162.25;847508;23;1296;-95
2022/07/30 12:54:42;;;;;;;4.50;3.70;;;;;;;42.35;14.73;101170.28;844836;23;1330;-95
2022/07/30 12:55:40;;;;;;;3.72;3.42;;;;;;;41.65;15.04;101156.19;852979;23;1411;-96
2022/07/30 12:56:34;;;;;;;3.13;2.93;;;;;;;41.43;15.60;101160.19;854504;23;1433;-94
2022/07/30 12:58:02;;;;;;;;;;;;;;;;;;;;;
2022/07/30 12:59:11;;;;;;;;;;;;;;;;;;;;;
2022/07/30 12:59:44;;;;;;;3.60;3.30;;;;;;;42.25;15.17;101153.91;850179;23;1157;-94
2022/07/30 13:00:15;;;;;;;4.72;2.90;;;;;;;42.32;15.27;101145.88;847717;23;1377;-94
2022/07/30 13:00:58;;;;;;;4.90;2.90;;;;;;;42.53;15.19;101167.50;854370;23;1088;-95
2022/07/30 13:01:58;;;;;;;;;;;;;;;;;;;;;
2022/07/30 13:02:54;;;;;;;3.90;3.13;;;;;;;41.72;15.29;101159.16;849130;23;1361;-96
2022/07/30 13:03:27;;;;;;;3.58;3.15;;;;;;;41.37;15.34;101158.06;852419;23;1436;-92
2022/07/30 13:04:17;;;;;;;;;;;;;;;;;;;;;
2022/07/30 13:05:20;;;;;;;4.30;2.67;;;;;;;40.71;15.53;101150.63;845208;23;1380;-92
2022/07/30 13:06:00;;;;;;;3.97;3.22;;;;;;;40.53;15.52;101153.22;858322;23;956;-94
2022/07/30 13:06:47;;;;;;;3.90;3.00;;;;;;;40.69;15.60;101157.22;848710;23;1031;-94
2022/07/30 13:08:02;;;;;;;4.38;2.70;;;;;;;41.71;15.29;101160.19;850158;23;1304;-93
2022/07/30 13:09:06;;;;;;;3.00;2.70;;;;;;;42.17;14.95;101167.53;856999;23;1180;-94
2022/07/30 13:09:27;;;;;;;3.65;3.00;;;;;;;41.96;14.53;101154.97;844357;23;1280;-95
2022/07/30 13:10:22;;;;;;;;;;;;;;;;;;;;;
2022/07/30 13:10:59;;;;;;;3.50;3.20;;;;;;;41.94;15.07;101152.41;848751;23;1392;-95
2022/07/30 13:12:13;;;;;;;;;;;;;;;;;;;;;
2022/07/30 13:12:43;;;;;;;2.92;2.63;;;;;;;43.22;14.57;101147.59;852745;23;1102;-95
2022/07/30 13:13:09;;;;;;;2.90;2.70;;;;;;;43.28;14.48;101149.66;841653;23;1897;-94
2022/07/30 13:13:35;;;;;;;3.30;3.10;;;;;;;43.15;14.15;101141.84;848535;23;1348;-93
2022/07/30 13:14:05;;;;;;;3.65;3.35;;;;;;;43.01;14.45;101147.94;844689;23;1109;-93
2022/07/30 13:14:31;;;;;;;3.45;3.08;;;;;;;42.70;14.37;101151.16;841533;23;1276;-93
2022/07/30 13:14:59;;;;;;;5.22;2.95;;;;;;;42.50;14.31;101151.38;853046;23;1354;-94
2022/07/30 13:15:46;;;;;;;;;;;;;;;;;;;;;
2022/07/30 13:16:22;;;;;;;3.30;3.10;;;;;;;42.39;14.76;101155.25;852323;23;1299;-94
2022/07/30 13:16:52;;;;;;;2.83;2.53;;;;;;;42.49;14.98;101146.91;848821;23;1175;-93
2022/07/30 13:17:18;;;;;;;2.90;2.60;;;;;;;42.60;14.52;101140.31;848672;23;1330;-93
2022/07/30 13:17:46;;;;;;;2.72;2.50;;;;;;;42.74;14.29;101144.34;848765;23;1253;-93
2022/07/30 13:18:27;;;;;;;2.63;2.42;;;;;;;43.02;14.40;101158.78;842007;23;1024;-95
2022/07/30 13:19:03;;;;;;;3.00;2.70;;;;;;;43.43;13.95;101140.78;848786;23;1168;-93
2022/07/30 13:19:30;;;;;;;2.80;2.60;;;;;;;43.78;13.87;101136.09;852980;23;1221;-93
2022/07/30 13:20:17;;;;;;;4.18;2.70;;;;;;;44.03;13.63;101141.66;857384;23;1131;-94
2022/07/30 13:20:48;;;;;;;4.47;2.80;;;;;;;44.17;13.21;101159.34;848749;23;1398;-94
2022/07/30 13:21:29;;;;;;;3.22;2.60;;;;;;;44.46;13.25;101148.88;856926;23;1334;-94
2022/07/30 13:21:59;;;;;;;2.47;2.28;;;;;;;44.83;13.34;101157.59;849721;23;1565;-92
2022/07/30 13:22:21;;;;;;;2.90;2.30;;;;;;;44.87;12.98;101140.56;852943;23;1170;-93
2022/07/30 13:23:04;;;;;;;;;;;;;;;;;;;;;
2022/07/30 13:24:14;;;;;;;;;;;;;;;;;;;;;
2022/07/30 13:24:51;;;;;;;3.08;2.78;;;;;;;44.48;12.46;101144.94;861782;23;1265;-96
2022/07/30 13:25:17;;;;;;;2.80;2.60;;;;;;;44.33;12.44;101138.38;853624;23;1253;-93
2022/07/30 13:25:40;;;;;;;2.20;2.10;;;;;;;44.23;12.78;101152.28;840806;23;1118;-92
2022/07/30 13:26:34;;;;;;;;;;;;;;;;;;;;;
2022/07/30 13:27:30;;;;;;;;;;;;;;;;;;;;;
2022/07/30 13:28:08;;;;;;;2.70;2.50;;;;;;;43.31;12.81;101140.22;853203;23;1290;-93
2022/07/30 13:28:48;;;;;;;2.40;2.25;;;;;;;42.76;13.38;101150.53;853168;23;1223;-94
2022/07/30 13:29:47;;;;;;;4.10;2.58;;;;;;;42.22;13.97;101167.91;854504;23;1238;-95
2022/07/30 13:30:15;;;;;;;3.75;2.50;;;;;;;41.93;13.67;101147.06;844962;23;1340;-93
2022/07/30 13:31:00;;;;;;;2.80;2.50;;;;;;;41.66;14.18;101146.97;844831;23;1315;-95
2022/07/30 13:31:53;;;;;;;;;;;;;;;;;;;;;
2022/07/30 13:32:22;;;;;;;2.17;2.08;;;;;;;41.85;13.81;101149.72;849283;23;1467;-95
2022/07/30 13:33:23;;;;;;;2.40;2.20;;;;;;;42.08;13.67;101152.88;840998;23;1897;-93
2022/07/30 13:34:07;;;;;;;3.53;2.50;;;;;;;42.34;13.55;101150.19;836552;23;1350;-94
2022/07/30 13:34:40;;;;;;;3.25;2.33;;;;;;;42.45;13.17;101157.34;849972;23;1194;-93
2022/07/30 13:35:08;;;;;;;3.40;2.10;;;;;;;42.32;13.20;101148.63;849069;23;1346;-93
2022/07/30 13:35:37;;;;;;;3.03;2.03;;;;;;;42.04;12.91;101141.38;840591;23;1270;-94
2022/07/30 13:36:09;;;;;;;2.83;2.20;;;;;;;41.94;12.85;101149.66;849026;23;1283;-96
2022/07/30 13:36:45;;;;;;;;;;;;;;;;;;;;;
2022/07/30 13:37:20;;;;;;;3.70;2.17;;;;;;;41.56;13.23;101148.91;857026;23;1162;-91
2022/07/30 13:37:55;;;;;;;3.40;2.00;;;;;;;41.28;13.23;101146.13;854327;23;1094;-93
2022/07/30 13:38:21;;;;;;;2.00;1.90;;;;;;;41.25;13.24;101150.03;856981;23;1164;-93
2022/07/30 13:38:52;;;;;;;2.37;2.17;;;;;;;41.13;13.41;101156.69;852880;23;1093;-95
2022/07/30 13:39:16;;;;;;;2.67;2.47;;;;;;;40.94;13.85;101161.22;848684;23;1290;-94
2022/07/30 13:39:37;;;;;;;2.70;2.50;;;;;;;40.86;14.22;101145.56;844665;23;1137;-91
2022/07/30 13:40:23;;;;;;;3.50;2.70;;;;;;;40.60;14.14;101153.50;852645;23;1343;-96
2022/07/30 13:40:47;;;;;;;3.45;2.65;;;;;;;40.32;14.44;101153.41;852960;23;1248;-95
2022/07/30 13:41:17;;;;;;;2.70;2.60;;;;;;;40.24;14.78;101148.59;840604;23;1271;-93
2022/07/30 13:41:53;;;;;;;2.97;2.78;;;;;;;40.31;14.67;101160.72;837013;23;1293;-96
2022/07/30 13:42:27;;;;;;;;;;;;;;;;;;;;;
2022/07/30 13:43:16;;;;;;;2.55;2.40;;;;;;;40.47;14.84;101156.53;844532;23;1229;-95
2022/07/30 13:43:57;;;;;;;3.10;2.50;;;;;;;40.61;14.43;101144.28;836827;23;1402;-93
2022/07/30 13:44:31;;;;;;;2.90;2.60;;;;;;;40.70;14.38;101148.00;846237;23;1120;-94
2022/07/30 13:45:10;;;;;;;;;;;;;;;;;;;;;
2022/07/30 13:45:46;;;;;;;3.30;1.90;;;;;;;40.87;14.17;101138.19;848872;23;1319;-94
2022/07/30 13:46:38;;;;;;;2.05;1.95;;;;;;;41.39;13.82;101147.81;852973;23;1146;-94
2022/07/30 13:47:11;;;;;;;2.28;2.10;;;;;;;41.66;13.65;101143.34;851713;23;1245;-95
2022/07/30 13:47:54;;;;;;;1.90;1.80;;;;;;;41.85;13.37;101142.34;857699;23;1047;-94
2022/07/30 13:48:38;;;;;;;2.60;2.40;;;;;;;41.66;13.63;101143.34;855696;23;964;-93
2022/07/30 13:49:21;;;;;;;3.83;2.80;;;;;;;41.23;13.59;101143.84;858979;23;1156;-93
2022/07/30 13:49:45;;;;;;;3.70;2.53;;;;;;;40.92;14.00;101151.44;848802;23;1211;-93
2022/07/30 13:50:49;;;;;;;2.55;2.35;;;;;;;40.74;14.69;101151.34;857341;23;1410;-94
2022/07/30 13:51:12;;;;;;;2.50;2.30;;;;;;;40.75;14.54;101153.06;853112;23;1422;-95
2022/07/30 13:51:33;;;;;;;2.67;2.47;;;;;;;40.77;14.63;101148.31;844962;23;1094;-94
2022/07/30 13:52:31;;;;;;;3.20;2.90;;;;;;;40.78;14.33;101144.56;849992;23;1550;-93
2022/07/30 13:53:12;;;;;;;2.40;2.30;;;;;;;40.69;14.33;101141.66;852837;23;1897;-94
2022/07/30 13:54:03;;;;;;;;;;;;;;;;;;;;;
2022/07/30 13:54:37;;;;;;;4.10;2.70;;;;;;;39.89;14.56;101148.16;848929;23;1402;-95
2022/07/30 13:55:35;;;;;;;;;;;;;;;;;;;;;
2022/07/30 13:56:04;;;;;;;2.70;2.50;;;;;;;39.71;14.66;101136.19;848933;23;1288;-93
2022/07/30 13:56:39;;;;;;;2.50;2.30;;;;;;;39.73;14.87;101145.09;852896;23;1252;-95
2022/07/30 13:57:06;;;;;;;3.90;2.50;;;;;;;39.65;14.91;101143.06;852897;23;1318;-93
2022/07/30 13:57:35;;;;;;;3.60;2.50;;;;;;;39.49;15.13;101132.66;848847;23;1216;-93
2022/07/30 13:57:56;;;;;;;2.67;2.22;;;;;;;39.39;15.22;101145.41;844993;23;1282;-93
2022/07/30 13:58:27;;;;;;;4.22;2.00;;;;;;;39.28;15.40;101146.38;852764;23;1314;-94
2022/07/30 13:58:50;;;;;;;5.00;2.40;;;;;;;39.04;15.55;101136.66;853158;23;1304;-92
2022/07/30 13:59:23;;;;;;;3.35;2.65;;;;;;;38.97;15.57;101136.31;845609;23;1119;-94
2022/07/30 13:59:44;;;;;;;2.58;2.38;;;;;;;39.02;15.26;101141.38;853143;23;1275;-92
2022/07/30 14:00:34;;;;;;;;;;;;;;;;;;;;;
2022/07/30 14:01:22;;;;;;;;;;;;;;;;;;;;;
2022/07/30 14:02:15;;;;;;;2.97;2.67;;;;;;;38.44;15.68;101142.66;852897;23;1318;-93
2022/07/30 14:02:51;;;;;;;;;;;;;;;;;;;;;
2022/07/30 14:03:40;;;;;;;2.50;2.30;;;;;;;38.30;16.11;101135.69;856706;23;1048;-96
2022/07/30 14:04:24;;;;;;;2.50;2.30;;;;;;;38.52;16.35;101138.28;854266;23;1052;-92
2022/07/30 14:05:09;;;;;;;;;;;;;;;;;;;;;
2022/07/30 14:06:04;;;;;;;2.60;2.40;;;;;;;38.40;16.13;101147.50;855597;23;1048;-94
2022/07/30 14:06:47;;;;;;;2.40;2.20;;;;;;;38.36;16.33;101143.34;849495;23;1310;-96
2022/07/30 14:07:24;;;;;;;2.50;2.30;;;;;;;38.26;15.95;101152.31;844975;23;1243;-94
2022/07/30 14:07:47;;;;;;;2.30;2.20;;;;;;;38.06;16.02;101139.47;853310;23;1338;-95
2022/07/30 14:08:38;;;;;;;2.60;2.40;;;;;;;37.66;16.53;101133.63;848440;23;1172;-95
2022/07/30 14:09:17;;;;;;;;;;;;;;;;;;;;;
2022/07/30 14:09:42;;;;;;;2.03;1.90;;;;;;;37.59;16.78;101135.09;853236;23;1275;-94
2022/07/30 14:10:24;;;;;;;2.17;2.00;;;;;;;37.77;16.45;101149.09;845365;23;1187;-94
2022/07/30 14:10:58;;;;;;;2.42;2.30;;;;;;;38.05;16.32;101140.47;850607;23;1082;-94
2022/07/30 14:12:03;;;;;;;2.30;2.20;;;;;;;38.32;16.25;101130.97;855472;23;1071;-96
2022/07/30 14:12:59;;;;;;;2.90;2.20;;;;;;;38.66;16.10;101158.09;845776;23;1103;-95
2022/07/30 14:13:59;;;;;;;;;;;;;;;;;;;;;
2022/07/30 14:14:37;;;;;;;2.20;2.00;;;;;;;38.51;15.71;101144.75;845482;23;1263;-94
2022/07/30 14:15:30;;;;;;;3.25;2.10;;;;;;;38.38;15.95;101149.50;846065;23;1200;-94
2022/07/30 14:16:17;;;;;;;4.20;2.30;;;;;;;38.07;16.04;101138.47;846007;23;1383;-93
2022/07/30 14:17:00;;;;;;;;;;;;;;;;;;;;;
2022/07/30 14:17:46;;;;;;;2.65;2.30;;;;;;;37.23;16.78;101135.25;843778;23;759;-94
2022/07/30 14:18:14;;;;;;;2.60;2.40;;;;;;;37.04;17.05;101135.81;847387;23;1344;-92
2022/07/30 14:19:11;;;;;;;2.50;2.30;;;;;;;36.84;17.16;101143.72;845213;23;1233;-96
2022/07/30 14:19:49;;;;;;;2.65;2.30;;;;;;;36.87;17.29;101129.03;845595;23;1267;-94
2022/07/30 14:20:37;;;;;;;;;;;;;;;;;;;;;
2022/07/30 14:21:43;;;;;;;3.20;2.30;;;;;;;37.02;16.91;101135.94;860497;23;1180;-94
2022/07/30 14:22:14;;;;;;;;;;;;;;;;;;;;;
2022/07/30 14:22:51;;;;;;;2.45;2.05;;;;;;;36.63;17.33;101132.66;859242;23;1157;-93
2022/07/30 14:23:27;;;;;;;2.75;2.55;;;;;;;36.29;17.37;101137.97;858232;23;1245;-94
2022/07/30 14:23:55;;;;;;;2.75;2.55;;;;;;;36.07;17.64;101140.44;845746;23;1403;-94
2022/07/30 14:24:29;;;;;;;3.25;2.50;;;;;;;35.82;17.83;101126.00;853726;23;1275;-96
2022/07/30 14:25:00;;;;;;;4.35;2.63;;;;;;;35.59;18.28;101132.22;850462;23;1215;-94
2022/07/30 14:25:56;;;;;;;2.95;2.35;;;;;;;35.38;18.40;101146.38;842302;23;1156;-93
2022/07/30 14:26:22;;;;;;;3.30;2.35;;;;;;;35.30;18.43;101146.06;851026;23;1278;-94
2022/07/30 14:27:20;;;;;;;;;;;;;;;;;;;;;
2022/07/30 14:28:02;;;;;;;3.45;2.40;;;;;;;35.55;17.97;101146.00;849391;23;1099;-94
2022/07/30 14:28:46;;;;;;;3.58;2.20;;;;;;;35.69;17.73;101131.44;852032;23;1054;-94
2022/07/30 14:29:20;;;;;;;3.25;2.10;;;;;;;35.81;17.69;101128.81;849065;23;1226;-96
2022/07/30 14:29:59;;;;;;;2.20;2.00;;;;;;;36.10;17.57;101140.19;858532;23;1598;-94
2022/07/30 14:30:29;;;;;;;2.40;2.20;;;;;;;36.18;17.66;101142.34;849842;23;1222;-93
2022/07/30 14:30:55;;;;;;;2.55;2.35;;;;;;;36.29;17.65;101137.97;854456;23;1290;-93
2022/07/30 14:31:49;;;;;;;3.58;2.30;;;;;;;36.35;17.48;101143.81;849043;23;1231;-96
2022/07/30 14:32:13;;;;;;;3.55;2.30;;;;;;;36.36;17.46;101136.53;835074;23;1269;-94
2022/07/30 14:32:57;;;;;;;2.53;2.20;;;;;;;36.54;17.84;101128.81;838548;23;1917;-94
2022/07/30 14:33:39;;;;;;;2.10;1.90;;;;;;;36.86;17.53;101144.47;845205;23;1084;-91
2022/07/30 14:34:18;;;;;;;;;;;;;;;;;;;;;
2022/07/30 14:35:25;;;;;;;3.05;2.10;;;;;;;37.40;17.01;101133.91;854219;23;1227;-94
2022/07/30 14:36:01;;;;;;;2.72;2.10;;;;;;;37.44;16.88;101121.75;851547;23;1285;-95
2022/07/30 14:37:30;;;;;;;;;;;;;;;;;;;;;
2022/07/30 14:38:01;;;;;;;3.22;2.10;;;;;;;37.67;16.80;101126.34;855142;23;1337;-93
2022/07/30 14:38:42;;;;;;;;;;;;;;;;;;;;;
2022/07/30 14:39:28;;;;;;;4.60;2.20;;;;;;;37.85;16.35;101129.38;843113;23;1287;-90
2022/07/30 14:39:49;;;;;;;2.33;2.00;;;;;;;37.92;16.46;101130.59;847661;23;1255;-89
2022/07/30 14:40:11;;;;;;;2.20;1.97;;;;;;;37.90;16.70;101129.84;852018;23;1124;-86
2022/07/30 14:40:34;;;;;;;3.33;2.10;;;;;;;37.88;16.31;101120.97;843922;23;1325;-94
2022/07/30 14:41:07;;;;;;;3.20;2.28;;;;;;;37.92;16.36;101127.00;853462;23;1145;-95
2022/07/30 14:41:42;;;;;;;2.30;2.10;;;;;;;37.75;16.32;101117.53;849769;23;1424;-93
2022/07/30 14:42:16;;;;;;;2.42;2.22;;;;;;;37.73;16.63;101128.53;853280;23;1109;-93
2022/07/30 14:42:42;;;;;;;2.30;2.10;;;;;;;37.72;16.89;101138.56;854091;23;1216;-94
2022/07/30 14:43:26;;;;;;;;;;;;;;;;;;;;;
2022/07/30 14:44:12;;;;;;;2.38;2.00;;;;;;;38.17;16.25;101130.41;842364;23;1155;-96
2022/07/30 14:44:56;;;;;;;;;;;;;;;;;;;;;
2022/07/30 14:45:21;;;;;;;2.30;1.90;;;;;;;38.19;15.89;101129.28;854490;23;1277;-94
2022/07/30 14:45:52;;;;;;;1.90;1.80;;;;;;;38.10;15.72;101113.75;852687;23;974;-95
2022/07/30 14:46:47;;;;;;;;;;;;;;;;;;;;;
2022/07/30 14:47:41;;;;;;;3.60;2.20;;;;;;;38.04;15.95;101115.06;852657;23;1177;-96
2022/07/30 14:48:33;;;;;;;2.28;1.90;;;;;;;38.15;15.94;101122.38;854109;23;1029;-96
2022/07/30 14:49:11;;;;;;;3.25;2.45;;;;;;;38.06;15.75;101123.13;858812;23;1047;-95
2022/07/30 14:49:42;;;;;;;3.28;2.40;;;;;;;37.96;15.76;101123.91;850166;23;1163;-96